Terminal Aerodrome Forecast
Issued by NWS Caribou, ME

Home | Current Version | Previous Version | Text Only | Print | Product List | Glossary On
Versions: 1 2 3 4 5 6 7 8 9 10 11 12 13 14 15 16 17 18
051
FTUS41 KCAR 191417 AAB
TAFBGR
TAF AMD
KBGR 191417Z 1914/2012 29003KT 4SM -SN BR BKN010 OVC025
     FM191500 VRB03KT P6SM BKN025
     FM191900 26004KT P6SM BKN035
     FM200200 32005KT P6SM SCT050 BKN090=

USA.gov is the U.S. government's official web portal to all federal, state and local government web resources and services.